Time;durP1;ratioP1;P1;durP2;ratioP2;P2;SDS_P1;SDS_P2;PMS_P1;PMS_P2;Temp;Humidity;BMP_temperature;BMP_pressure;BME280_temperature;BME280_humidity;BME280_pressure;Samples;Min_cycle;Max_cycle;Signal;HPM_P1;HPM_P2
2022/09/16 00:00:45;;;;;;;9.82;1.85;;;12.30;99.90;;;-144.05;73.89;125687.94;4808414;29;20101;-81
2022/09/16 00:03:12;;;;;;;12.45;1.83;;;12.30;99.90;;;-144.05;74.04;125687.94;4808682;29;20114;-82
2022/09/16 00:05:49;;;;;;;5.65;1.60;;;12.40;99.90;;;-144.05;73.75;125687.94;4808631;29;20035;-82
2022/09/16 00:08:17;;;;;;;8.70;2.13;;;12.40;99.90;;;-144.05;73.55;125687.94;4808778;29;20113;-81
2022/09/16 00:10:44;;;;;;;7.30;1.85;;;12.40;99.90;;;-144.05;73.46;125687.94;4807078;29;20125;-83
2022/09/16 00:13:12;;;;;;;3.45;1.42;;;12.50;99.90;;;-144.05;73.40;125687.94;4808342;29;20141;-83
2022/09/16 00:15:49;;;;;;;6.03;1.55;;;12.50;99.90;;;-144.05;73.41;125687.94;4808244;29;20479;-81
2022/09/16 00:18:16;;;;;;;3.58;1.80;;;12.50;99.90;;;-144.05;73.33;125687.94;4806943;29;20061;-83
2022/09/16 00:20:49;;;;;;;6.35;1.83;;;12.50;99.90;;;-144.05;73.40;125687.94;4808050;29;20039;-82
2022/09/16 00:23:16;;;;;;;2.67;1.30;;;12.50;99.90;;;-144.05;72.98;125687.94;4808809;29;20111;-83
2022/09/16 00:25:42;;;;;;;6.22;1.73;;;12.50;99.90;;;-144.05;72.95;125687.94;4808185;29;20327;-83
2022/09/16 00:28:09;;;;;;;5.13;1.75;;;12.60;99.90;;;-144.05;72.72;125687.94;4807849;29;20030;-82
2022/09/16 00:30:35;;;;;;;6.05;1.40;;;12.60;99.90;;;-144.05;72.56;125687.94;4806438;29;20046;-80
2022/09/16 00:33:01;;;;;;;3.78;1.30;;;12.60;99.90;;;-144.05;72.67;125687.94;4807961;29;20035;-82
2022/09/16 00:35:27;;;;;;;7.75;1.45;;;12.60;99.90;;;-144.05;72.58;125687.94;4807481;29;20031;-80
2022/09/16 00:37:52;;;;;;;9.07;2.03;;;12.60;99.90;;;-144.05;72.75;125687.94;4806287;29;20042;-82
2022/09/16 00:40:19;;;;;;;3.80;1.35;;;12.60;99.90;;;-144.05;72.65;125687.94;4806172;29;20074;-83
2022/09/16 00:42:44;;;;;;;9.32;2.25;;;12.60;99.90;;;-144.05;72.65;125687.94;4807831;29;20122;-82
2022/09/16 00:45:23;;;;;;;5.63;1.30;;;12.60;99.90;;;-144.05;72.48;125687.94;4806640;29;20062;-83
2022/09/16 00:48:01;;;;;;;5.68;1.13;;;12.60;99.90;;;-144.05;72.64;125687.94;4807654;29;20114;-83
2022/09/16 00:50:47;;;;;;;4.03;1.20;;;12.60;99.90;;;-144.05;72.68;125687.94;4807477;29;20101;-82
2022/09/16 00:53:25;;;;;;;8.48;1.38;;;12.50;99.90;;;-144.05;72.82;125687.94;4806274;29;20026;-82
2022/09/16 00:55:57;;;;;;;5.18;1.35;;;12.60;99.90;;;-144.05;72.92;125687.94;4807548;29;20402;-82
2022/09/16 00:59:01;;;;;;;4.40;1.38;;;12.50;99.90;;;-144.05;73.07;125687.94;4806983;29;20470;-83
2022/09/16 01:01:30;;;;;;;5.95;1.50;;;12.40;99.90;;;-144.05;73.25;125687.94;4803112;29;20043;-80
2022/09/16 01:04:13;;;;;;;5.97;1.35;;;12.40;99.90;;;-144.05;73.65;125687.94;4807665;29;20371;-82
2022/09/16 01:06:39;;;;;;;4.80;1.58;;;12.30;99.90;;;-144.05;73.80;125687.94;4807211;29;20372;-83
2022/09/16 01:09:06;;;;;;;5.63;1.90;;;12.40;99.90;;;-144.05;73.88;125687.94;4806080;29;20042;-81
2022/09/16 01:11:32;;;;;;;3.78;1.40;;;12.30;99.90;;;-144.05;73.96;125687.94;4805488;29;20381;-81
2022/09/16 01:17:28;;;;;;;5.70;1.60;;;12.30;99.90;;;-144.05;74.27;125687.94;4807151;29;20033;-82
2022/09/16 01:20:28;;;;;;;;;;;12.40;99.90;;;-144.05;74.51;125687.94;4806521;29;20035;-81
2022/09/16 01:23:15;;;;;;;12.95;2.22;;;12.30;99.90;;;-144.05;74.75;125687.94;4807168;29;19913;-82
2022/09/16 01:26:13;;;;;;;8.27;2.47;;;12.30;99.90;;;-144.05;74.91;125687.94;4811434;29;20042;-83
2022/09/16 01:29:41;;;;;;;6.95;2.20;;;12.30;99.90;;;-144.05;75.00;125687.94;4808078;29;20038;-81
2022/09/16 01:32:41;;;;;;;7.45;2.03;;;12.30;99.90;;;-144.05;75.10;125687.94;4806593;29;20042;-82
2022/09/16 01:35:31;;;;;;;4.50;2.05;;;12.30;99.90;;;-144.05;75.29;125687.94;4806608;29;20042;-81
2022/09/16 01:38:40;;;;;;;3.83;1.80;;;12.40;99.90;;;-144.05;75.24;125687.94;4805460;29;20129;-81
2022/09/16 01:41:12;;;;;;;8.70;2.45;;;12.40;99.90;;;-144.05;75.35;125687.94;4805079;29;20037;-83
2022/09/16 01:44:02;;;;;;;5.22;1.80;;;12.30;99.90;;;-144.05;75.38;125687.94;4805002;29;20039;-81
2022/09/16 01:47:10;;;;;;;7.28;2.35;;;12.30;99.90;;;-144.05;75.85;125687.94;4820648;29;20160;-81
2022/09/16 01:50:31;;;;;;;8.98;2.17;;;12.30;99.90;;;-144.05;76.11;125687.94;4808205;29;20058;-81
2022/09/16 01:53:40;;;;;;;5.38;1.85;;;12.30;99.90;;;-144.05;76.01;125687.94;4827587;29;20102;-82
2022/09/16 01:56:23;;;;;;;6.55;2.00;;;12.30;99.90;;;-144.05;75.78;125687.94;4826569;29;20114;-82
2022/09/16 01:59:32;;;;;;;6.35;1.88;;;12.30;99.90;;;-144.05;76.13;125687.94;4810814;29;20035;-82
2022/09/16 02:02:14;;;;;;;6.85;1.77;;;12.30;99.90;;;-144.05;75.93;125687.94;4806688;29;20030;-81
2022/09/16 02:04:53;;;;;;;6.82;2.30;;;12.30;99.90;;;-144.05;76.21;125687.94;4806490;29;20466;-83
2022/09/16 02:07:30;;;;;;;4.50;1.35;;;12.30;99.90;;;-144.05;75.90;125687.94;4805373;29;20066;-83
2022/09/16 02:10:16;;;;;;;4.53;1.63;;;12.30;99.90;;;-144.05;76.09;125687.94;4804945;29;20072;-80
2022/09/16 02:12:45;;;;;;;;;;;12.30;99.90;;;-144.05;75.92;125687.94;4807397;29;20464;-83
2022/09/16 02:15:21;;;;;;;6.97;2.00;;;12.30;99.90;;;-144.05;75.85;125687.94;4805825;29;19939;-83
2022/09/16 02:18:08;;;;;;;7.30;1.80;;;12.40;99.90;;;-144.05;75.99;125687.94;4806061;29;20035;-83
2022/09/16 02:20:43;;;;;;;9.88;1.90;;;12.40;99.90;;;-144.05;75.86;125687.94;4821199;29;20150;-80
2022/09/16 02:23:23;;;;;;;10.75;2.08;;;12.30;99.90;;;-144.05;76.24;125687.94;4807022;29;20031;-83
2022/09/16 02:25:54;;;;;;;6.78;2.38;;;12.30;99.90;;;-144.05;76.23;125687.94;4805917;29;20131;-81
2022/09/16 02:28:31;;;;;;;8.02;2.22;;;12.30;99.90;;;-144.05;76.57;125687.94;4805594;29;20110;-83
2022/09/16 02:31:06;;;;;;;6.45;2.17;;;12.30;99.90;;;-144.05;76.44;125687.94;4805400;29;20479;-81
2022/09/16 02:33:59;;;;;;;6.00;2.13;;;12.40;99.90;;;-144.05;76.15;125687.94;4805721;29;20494;-81
2022/09/16 02:36:29;;;;;;;5.05;1.75;;;12.30;99.90;;;-144.05;75.97;125687.94;4806047;29;20117;-83
2022/09/16 02:39:09;;;;;;;6.78;2.33;;;12.30;99.90;;;-144.05;76.38;125687.94;4805638;29;20027;-83
2022/09/16 02:41:40;;;;;;;7.97;2.63;;;12.30;99.90;;;-144.05;76.11;125687.94;4806776;29;20520;-81
2022/09/16 02:44:08;;;;;;;10.48;2.17;;;12.30;99.90;;;-144.05;75.97;125687.94;4806689;29;20034;-80
2022/09/16 02:47:05;;;;;;;4.75;1.92;;;12.30;99.90;;;-144.05;76.23;125687.94;4805245;29;20038;-82
2022/09/16 02:49:57;;;;;;;7.40;2.22;;;12.30;99.90;;;-144.05;76.47;125687.94;4806888;29;20046;-83
2022/09/16 02:52:55;;;;;;;9.15;1.70;;;12.30;99.90;;;-144.05;76.42;125687.94;4805957;29;20490;-82
2022/09/16 02:55:43;;;;;;;4.95;1.52;;;12.30;99.90;;;-144.05;76.72;125687.94;4805352;29;20031;-82
2022/09/16 02:58:10;;;;;;;4.18;1.58;;;12.30;99.90;;;-144.05;76.39;125687.94;4805258;29;20027;-82
2022/09/16 03:00:47;;;;;;;5.97;1.40;;;12.30;99.90;;;-144.05;76.13;125687.94;4804978;29;20042;-83
2022/09/16 03:03:14;;;;;;;6.28;1.92;;;12.30;99.90;;;-144.05;75.87;125687.94;4804978;29;20042;-82
2022/09/16 03:06:21;;;;;;;4.07;1.35;;;12.30;99.90;;;-144.05;76.42;125687.94;4806174;29;20517;-82
2022/09/16 03:08:49;;;;;;;6.10;1.75;;;12.30;99.90;;;-144.05;76.02;125687.94;4806282;29;20049;-81
2022/09/16 03:11:30;;;;;;;7.10;1.38;;;12.30;99.90;;;-144.05;76.10;125687.94;4806540;29;20035;-81
2022/09/16 03:14:36;;;;;;;7.88;1.85;;;12.30;99.90;;;-144.05;76.20;125687.94;4805857;29;20088;-81
2022/09/16 03:17:39;;;;;;;5.47;1.77;;;12.30;99.90;;;-144.05;75.94;125687.94;4805729;29;20042;-82
2022/09/16 03:20:56;;;;;;;7.15;1.30;;;12.30;99.90;;;-144.05;76.02;125687.94;4804933;29;20035;-82
2022/09/16 03:24:05;;;;;;;;;;;12.30;99.90;;;-144.05;75.82;125687.94;4808621;29;20031;-80
2022/09/16 03:27:09;;;;;;;6.05;1.63;;;12.30;99.90;;;-144.05;76.48;125687.94;4809814;29;19913;-83
2022/09/16 03:30:02;;;;;;;7.95;1.48;;;12.20;99.90;;;-144.05;76.04;125687.94;4809442;29;20070;-79
2022/09/16 03:32:42;;;;;;;4.93;1.50;;;12.20;99.90;;;-144.05;76.35;125687.94;4808024;29;20065;-80
2022/09/16 03:35:26;;;;;;;6.72;1.90;;;12.20;99.90;;;-144.05;76.24;125687.94;4809981;29;20034;-81
2022/09/16 03:37:57;;;;;;;6.05;1.70;;;12.20;99.90;;;-144.05;76.29;125687.94;4823250;29;20570;-83
2022/09/16 03:40:28;;;;;;;5.18;1.40;;;12.20;99.90;;;-144.05;76.22;125687.94;4807770;29;20038;-83
2022/09/16 03:42:56;;;;;;;10.15;1.60;;;12.20;99.90;;;-144.05;76.04;125687.94;4808851;29;20084;-83
2022/09/16 03:45:23;;;;;;;5.15;1.27;;;12.20;99.90;;;-144.05;76.10;125687.94;4808967;29;20045;-83
2022/09/16 03:47:52;;;;;;;6.68;1.58;;;12.20;99.90;;;-144.05;76.12;125687.94;4808146;29;20130;-82
2022/09/16 03:50:21;;;;;;;6.18;1.63;;;12.20;99.90;;;-144.05;75.87;125687.94;4809920;29;20039;-84
2022/09/16 03:52:46;;;;;;;4.25;1.45;;;12.20;99.90;;;-144.05;75.98;125687.94;4808584;29;20041;-79
2022/09/16 03:55:12;;;;;;;9.43;1.90;;;12.20;99.90;;;-144.05;76.01;125687.94;4810493;29;20118;-80
2022/09/16 03:57:39;;;;;;;7.97;1.80;;;12.20;99.90;;;-144.05;75.79;125687.94;4808754;29;20058;-81
2022/09/16 04:00:07;;;;;;;3.45;1.23;;;12.10;99.90;;;-144.05;76.43;125687.94;4809969;29;20031;-82
2022/09/16 04:02:34;;;;;;;7.25;1.75;;;12.10;99.90;;;-144.05;76.44;125687.94;4809177;29;20041;-82
2022/09/16 04:05:00;;;;;;;8.57;1.92;;;12.10;99.90;;;-144.05;76.71;125687.94;4808011;29;20042;-83
2022/09/16 04:07:26;;;;;;;7.50;1.48;;;12.10;99.90;;;-144.05;77.05;125687.94;4809873;29;20035;-80
2022/09/16 04:09:52;;;;;;;6.03;1.67;;;12.00;99.90;;;-144.05;77.02;125687.94;4809875;29;20081;-83
2022/09/16 04:12:18;;;;;;;7.70;1.63;;;12.00;99.90;;;-144.05;77.08;125687.94;4823839;29;20039;-82
2022/09/16 04:14:43;;;;;;;5.43;1.67;;;12.00;99.90;;;-144.05;77.22;125687.94;4809716;29;20057;-80
2022/09/16 04:17:09;;;;;;;9.02;1.70;;;11.90;99.90;;;-144.05;77.44;125687.94;4809820;29;20031;-82
2022/09/16 04:19:35;;;;;;;5.95;1.48;;;11.90;99.90;;;-144.05;77.49;125687.94;4810704;29;20042;-81
2022/09/16 04:22:01;;;;;;;5.20;1.23;;;12.00;99.90;;;-144.05;77.93;125687.94;4810514;29;20444;-81
2022/09/16 04:24:27;;;;;;;5.50;1.50;;;11.90;99.90;;;-144.05;77.83;125687.94;4809010;29;20384;-82
2022/09/16 04:26:53;;;;;;;7.40;1.77;;;11.90;99.90;;;-144.05;78.04;125687.94;4808468;29;20126;-81
2022/09/16 04:29:19;;;;;;;6.50;1.73;;;11.90;99.90;;;-144.05;77.64;125687.94;4810787;29;20076;-79
2022/09/16 04:31:44;;;;;;;8.25;1.77;;;12.00;99.90;;;-144.05;77.83;125687.94;4812970;29;20107;-79
2022/09/16 04:34:11;;;;;;;5.47;1.48;;;12.00;99.90;;;-144.05;78.04;125687.94;4805538;29;20046;-82
2022/09/16 04:36:38;;;;;;;5.80;1.67;;;12.00;99.90;;;-144.05;78.68;125687.94;4806983;29;20081;-81
2022/09/16 04:39:05;;;;;;;6.38;1.60;;;12.00;99.90;;;-144.05;79.09;125687.94;4808766;29;20395;-80
2022/09/16 04:41:31;;;;;;;4.25;1.40;;;12.00;99.90;;;-144.05;78.50;125687.94;4807705;29;20031;-81
2022/09/16 04:43:59;;;;;;;6.85;1.52;;;12.00;99.90;;;-144.05;78.60;125687.94;4813098;29;20386;-83
2022/09/16 04:46:29;;;;;;;4.38;1.52;;;12.00;99.90;;;-144.05;78.68;125687.94;4815915;29;20031;-80
2022/09/16 04:48:56;;;;;;;8.50;1.60;;;12.00;99.90;;;-144.05;78.80;125687.94;4815086;29;20027;-83
2022/09/16 04:51:26;;;;;;;10.85;1.55;;;12.00;99.90;;;-144.05;79.14;125687.94;4813815;29;20038;-84
2022/09/16 04:53:56;;;;;;;8.35;1.95;;;12.00;99.90;;;-144.05;79.06;125687.94;4811943;29;20031;-83
2022/09/16 04:56:28;;;;;;;6.15;1.30;;;12.00;99.90;;;-144.05;79.06;125687.94;4811444;29;20058;-83
2022/09/16 04:58:59;;;;;;;9.10;2.00;;;12.00;99.90;;;-144.05;79.14;125687.94;4825030;29;20402;-86
2022/09/16 05:01:32;;;;;;;4.18;1.40;;;11.90;99.90;;;-144.05;78.60;125687.94;4811329;29;20092;-83
2022/09/16 05:04:04;;;;;;;4.30;1.42;;;11.90;99.90;;;-144.05;78.38;125687.94;4810525;29;20374;-81
2022/09/16 05:06:36;;;;;;;8.55;2.00;;;11.80;99.90;;;-144.05;78.88;125687.94;4811722;29;20031;-82
2022/09/16 05:09:03;;;;;;;10.80;2.10;;;11.80;99.90;;;-144.05;79.10;125687.94;4809812;29;20047;-84
2022/09/16 05:11:35;;;;;;;6.80;2.50;;;11.80;99.90;;;-144.05;79.54;125687.94;4810210;29;20066;-82
2022/09/16 05:14:07;;;;;;;6.28;1.73;;;11.80;99.90;;;-144.05;79.50;125687.94;4809483;29;20030;-83
2022/09/16 05:16:34;;;;;;;9.93;2.22;;;11.80;99.90;;;-144.05;79.54;125687.94;4812272;29;20031;-84
2022/09/16 05:19:03;;;;;;;5.97;1.98;;;11.90;99.90;;;-144.05;79.54;125687.94;4812417;29;20042;-84
2022/09/16 05:21:34;;;;;;;7.57;2.28;;;11.80;99.90;;;-144.05;79.27;125687.94;4810552;29;20031;-82
2022/09/16 05:24:06;;;;;;;8.40;2.22;;;11.80;99.90;;;-144.05;79.24;125687.94;4829434;29;20053;-83
2022/09/16 05:26:34;;;;;;;7.30;2.58;;;11.80;99.90;;;-144.05;79.22;125687.94;4814813;29;20060;-83
2022/09/16 05:29:10;;;;;;;7.82;2.13;;;11.90;99.90;;;-144.05;79.17;125687.94;4815107;29;20469;-83
2022/09/16 05:31:40;;;;;;;7.82;2.17;;;11.90;99.90;;;-144.05;79.12;125687.94;4813763;29;20046;-83
2022/09/16 05:34:20;;;;;;;12.27;2.97;;;11.90;99.90;;;-144.05;78.26;125687.94;4812935;29;20487;-87
2022/09/16 05:36:49;;;;;;;11.15;2.60;;;11.90;99.90;;;-144.05;77.83;125687.94;4812843;29;20122;-86
2022/09/16 05:39:17;;;;;;;9.23;2.42;;;11.90;99.90;;;-144.05;77.66;125687.94;4814498;29;20066;-85
2022/09/16 05:41:44;;;;;;;6.60;2.17;;;12.00;99.90;;;-144.05;77.42;125687.94;4811580;29;20047;-86
2022/09/16 05:44:11;;;;;;;7.00;2.35;;;12.00;99.90;;;-144.05;77.54;125687.94;4810074;29;20031;-80
2022/09/16 05:46:39;;;;;;;5.35;2.38;;;12.00;99.90;;;-144.05;77.32;125687.94;4811667;29;20485;-80
2022/09/16 05:49:06;;;;;;;8.07;2.17;;;12.00;99.90;;;-144.05;77.16;125687.94;4810514;29;20038;-79
2022/09/16 05:51:32;;;;;;;10.18;2.47;;;12.00;99.90;;;-144.05;77.08;125687.94;4811340;29;20035;-81
2022/09/16 05:53:59;;;;;;;7.70;2.25;;;12.10;99.90;;;-144.05;77.29;125687.94;4809788;29;20098;-84
2022/09/16 05:56:29;;;;;;;10.32;2.38;;;12.10;99.90;;;-144.05;76.92;125687.94;4811117;29;20074;-83
2022/09/16 05:58:59;;;;;;;8.38;3.13;;;12.10;99.90;;;-144.05;76.59;125687.94;4811098;29;20031;-82
2022/09/16 06:01:32;;;;;;;11.30;2.60;;;12.10;99.90;;;-144.05;76.10;125687.94;4811114;29;20031;-81
2022/09/16 06:04:03;;;;;;;12.23;3.00;;;12.10;99.90;;;-144.05;76.22;125687.94;4812245;29;20045;-83
2022/09/16 06:06:42;;;;;;;10.05;2.03;;;12.00;99.90;;;-144.05;76.13;125687.94;4812141;29;20039;-83
2022/09/16 06:09:20;;;;;;;7.30;2.35;;;12.10;99.90;;;-144.05;75.54;125687.94;4815974;29;20019;-78
2022/09/16 06:11:51;;;;;;;10.45;2.58;;;12.20;99.90;;;-144.05;75.19;125687.94;4828146;29;20043;-78
2022/09/16 06:14:21;;;;;;;9.15;2.83;;;12.20;99.90;;;-144.05;74.83;125687.94;4827084;29;20050;-81
2022/09/16 06:16:47;;;;;;;10.52;3.33;;;12.30;99.90;;;-144.05;74.52;125687.94;4826834;29;20039;-80
2022/09/16 06:19:17;;;;;;;14.50;2.90;;;12.50;99.90;;;-144.05;72.86;125687.94;4827445;29;20067;-83
2022/09/16 06:21:45;;;;;;;10.50;2.67;;;12.60;99.90;;;-144.05;72.99;125687.94;4821838;29;20075;-83
2022/09/16 06:24:15;;;;;;;7.22;2.72;;;12.80;99.90;;;-144.05;72.39;125687.94;4810952;29;20515;-81
2022/09/16 06:26:44;;;;;;;9.00;2.25;;;12.90;99.90;;;-144.05;71.79;125687.94;4810838;29;20039;-81
2022/09/16 06:29:11;;;;;;;7.32;2.40;;;12.90;99.90;;;-144.05;70.78;125687.94;4811127;29;20054;-83
2022/09/16 06:31:38;;;;;;;8.13;1.95;;;12.90;99.90;;;-144.05;70.82;125687.94;4810110;29;20529;-83
2022/09/16 06:34:07;;;;;;;10.82;2.10;;;12.90;99.90;;;-144.05;70.61;125687.94;4809691;29;20042;-82
2022/09/16 06:36:38;;;;;;;6.88;1.92;;;12.90;99.90;;;-144.05;71.08;125687.94;4812021;29;20583;-84
2022/09/16 06:39:05;;;;;;;6.25;2.35;;;13.00;99.90;;;-144.05;71.29;125687.94;4808519;29;20039;-85
2022/09/16 06:41:33;;;;;;;8.32;2.22;;;13.00;99.90;;;-144.05;70.73;125687.94;4809330;29;20102;-85
2022/09/16 06:43:59;;;;;;;5.85;1.85;;;13.20;99.90;;;-144.05;70.62;125687.94;4811481;29;20344;-83
2022/09/16 06:46:28;;;;;;;7.05;2.03;;;13.20;99.90;;;-144.05;70.29;125687.94;4811854;29;20030;-78
2022/09/16 06:48:57;;;;;;;7.22;2.30;;;13.20;99.90;;;-144.05;69.92;125687.94;4814841;29;20447;-82
2022/09/16 06:51:27;;;;;;;7.00;1.80;;;13.20;99.90;;;-144.05;69.56;125687.94;4810633;29;20034;-84
2022/09/16 06:54:00;;;;;;;9.93;2.10;;;13.30;99.90;;;-144.05;69.55;125687.94;4810481;29;20487;-85
2022/09/16 06:56:26;;;;;;;6.85;2.10;;;13.30;99.90;;;-144.05;69.65;125687.94;4808063;29;20058;-82
2022/09/16 06:58:54;;;;;;;7.72;2.25;;;13.30;99.90;;;-144.05;69.55;125687.94;4808864;29;20038;-82
2022/09/16 07:01:26;;;;;;;9.55;2.22;;;13.30;99.90;;;-144.05;69.65;125687.94;4809587;29;20035;-82
2022/09/16 07:03:56;;;;;;;6.63;2.10;;;13.40;99.90;;;-144.05;68.74;125687.94;4810107;29;20030;-82
2022/09/16 07:06:27;;;;;;;7.30;2.33;;;13.50;99.90;;;-144.05;67.93;125687.94;4809174;29;20379;-81
2022/09/16 07:08:53;;;;;;;8.93;2.13;;;13.60;99.90;;;-144.05;67.91;125687.94;4810719;29;20035;-83
2022/09/16 07:11:22;;;;;;;10.52;2.30;;;13.70;99.90;;;-144.05;66.98;125687.94;4809637;29;20069;-84
2022/09/16 07:13:50;;;;;;;6.95;2.00;;;13.70;99.90;;;-144.05;68.05;125687.94;4823981;29;20049;-85
2022/09/16 07:16:25;;;;;;;11.30;2.63;;;13.60;99.90;;;-144.05;68.86;125687.94;4810132;29;20035;-79
2022/09/16 07:18:57;;;;;;;6.97;2.15;;;13.60;99.90;;;-144.05;69.10;125687.94;4809824;29;20058;-83
2022/09/16 07:21:30;;;;;;;7.25;2.58;;;13.40;99.90;;;-144.05;68.71;125687.94;4810143;29;20631;-84
2022/09/16 07:24:02;;;;;;;7.53;2.50;;;13.40;99.90;;;-144.05;68.62;125687.94;4810664;29;20035;-84
2022/09/16 07:26:32;;;;;;;6.03;2.50;;;13.40;99.90;;;-144.05;68.36;125687.94;4825117;29;20070;-85
2022/09/16 07:29:03;;;;;;;5.07;2.38;;;13.40;99.90;;;-144.05;68.46;125687.94;4809868;29;20035;-84
2022/09/16 07:31:35;;;;;;;8.73;2.47;;;13.40;99.90;;;-144.05;68.36;125687.94;4810476;29;20031;-83
2022/09/16 07:34:05;;;;;;;8.38;2.25;;;13.40;99.90;;;-144.05;68.79;125687.94;4824086;29;20091;-82
2022/09/16 07:36:46;;;;;;;4.38;1.85;;;13.30;99.90;;;-144.05;68.96;125687.94;4823688;29;20046;-83
2022/09/16 07:39:16;;;;;;;8.20;1.85;;;13.30;99.90;;;-144.05;68.20;125687.94;4808744;29;20031;-84
2022/09/16 07:41:47;;;;;;;6.47;1.85;;;13.30;99.90;;;-144.05;68.18;125687.94;4810021;29;20035;-82
2022/09/16 07:44:17;;;;;;;6.00;1.75;;;13.30;99.90;;;-144.05;67.98;125687.94;4809463;29;20526;-82
2022/09/16 07:46:43;;;;;;;4.90;1.63;;;13.40;99.90;;;-144.05;67.78;125687.94;4808738;29;20122;-83
2022/09/16 07:49:13;;;;;;;6.50;1.60;;;13.50;99.90;;;-144.05;67.04;125687.94;4810967;29;20483;-82
2022/09/16 07:51:40;;;;;;;4.13;1.60;;;13.90;99.90;;;-144.05;65.09;125687.94;4810082;29;20031;-82
2022/09/16 07:54:11;;;;;;;5.97;1.70;;;14.00;99.90;;;-144.05;64.52;125687.94;4809834;29;20027;-83
2022/09/16 07:56:40;;;;;;;8.88;1.48;;;14.10;99.90;;;-144.05;64.58;125687.94;4807289;29;20042;-84
2022/09/16 07:59:14;;;;;;;6.85;2.33;;;14.20;99.90;;;-144.05;64.09;125687.94;4808395;29;20490;-84
2022/09/16 08:01:39;;;;;;;5.03;1.70;;;14.40;99.90;;;-144.05;63.14;125687.94;4809243;29;20030;-82
2022/09/16 08:04:05;;;;;;;4.47;1.75;;;15.00;99.90;;;-144.05;59.46;125687.94;4818283;29;20064;-82
2022/09/16 08:06:37;;;;;;;5.82;2.03;;;15.50;99.90;;;-144.05;59.01;125687.94;4822150;29;20130;-85
2022/09/16 08:09:03;;;;;;;4.80;1.88;;;15.80;99.90;;;-144.05;58.12;125687.94;4821683;29;20498;-85
2022/09/16 08:11:29;;;;;;;7.78;2.13;;;16.00;99.90;;;-144.05;57.30;125687.94;4819222;29;20062;-83
2022/09/16 08:13:58;;;;;;;9.07;1.95;;;16.50;99.90;;;-144.05;55.57;125687.94;4815028;29;20448;-83
2022/09/16 08:16:26;;;;;;;4.63;1.67;;;16.80;99.90;;;-144.05;54.09;125687.94;4815553;29;20035;-80
2022/09/16 08:18:57;;;;;;;3.97;1.52;;;17.00;99.90;;;-144.05;53.11;125687.94;4813763;29;20446;-80
2022/09/16 08:21:28;;;;;;;7.10;1.83;;;17.20;99.90;;;-144.05;53.06;125687.94;4815772;29;20122;-83
2022/09/16 08:23:55;;;;;;;3.95;1.20;;;17.50;99.90;;;-144.05;51.21;125687.94;4814776;29;20034;-83
2022/09/16 08:26:22;;;;;;;3.35;1.25;;;17.70;99.90;;;-144.05;52.05;125687.94;4814165;29;20037;-83
2022/09/16 08:28:49;;;;;;;4.68;1.60;;;17.80;99.90;;;-144.05;51.54;125687.94;4814319;29;20039;-82
2022/09/16 08:31:17;;;;;;;4.78;1.27;;;17.80;99.90;;;-144.05;50.79;125687.94;4812865;29;20038;-84
2022/09/16 08:33:44;;;;;;;2.63;1.48;;;17.70;99.90;;;-144.05;51.08;125687.94;4813328;29;20035;-82
2022/09/16 08:36:19;;;;;;;4.45;1.33;;;17.70;99.90;;;-144.05;51.31;125687.94;4814990;29;20060;-84
2022/09/16 08:38:49;;;;;;;;;;;17.90;99.90;;;-144.05;50.21;125687.94;4828291;29;20530;-82
2022/09/16 08:41:54;;;;;;;5.72;1.60;;;17.90;99.90;;;-144.05;50.09;125687.94;4813070;29;20352;-78
2022/09/16 08:44:49;;;;;;;4.07;1.20;;;17.70;99.90;;;-144.05;50.58;125687.94;4812184;29;20037;-82
2022/09/16 08:47:54;;;;;;;4.47;1.50;;;17.60;99.90;;;-144.05;50.70;125687.94;4813087;29;20034;-80
2022/09/16 08:50:43;;;;;;;6.78;1.40;;;17.10;99.90;;;-144.05;52.67;125687.94;4813370;29;20522;-83
2022/09/16 08:53:44;;;;;;;5.32;1.50;;;16.30;99.90;;;-144.05;54.09;125687.94;4812509;29;20407;-81
2022/09/16 08:56:19;;;;;;;3.65;1.35;;;15.90;99.90;;;-144.05;55.08;125687.94;4813549;29;20118;-83
2022/09/16 08:58:52;;;;;;;5.90;0.80;;;15.70;99.90;;;-144.05;54.00;125687.94;4811142;29;20031;-80
2022/09/16 09:01:38;;;;;;;4.28;0.80;;;16.10;99.90;;;-144.05;51.12;125687.94;4811849;29;20057;-83
2022/09/16 09:04:05;;;;;;;7.30;1.02;;;16.80;99.90;;;-144.05;49.39;125687.94;4813291;29;20094;-84
2022/09/16 09:07:24;;;;;;;3.55;1.00;;;17.50;99.90;;;-144.05;47.38;125687.94;4815937;29;20043;-84
2022/09/16 09:10:23;;;;;;;3.83;1.00;;;18.20;99.90;;;-144.05;46.70;125687.94;4813112;29;20068;-82
2022/09/16 09:13:28;;;;;;;5.60;1.00;;;18.50;99.90;;;-144.05;47.18;125687.94;4812997;29;20038;-81
2022/09/16 09:16:34;;;;;;;9.80;1.20;;;18.60;99.90;;;-144.05;48.24;125687.94;4811720;29;20041;-81
2022/09/16 09:19:30;;;;;;;5.10;1.00;;;17.90;99.90;;;-144.05;48.66;125687.94;4816117;29;20046;-82
2022/09/16 09:22:33;;;;;;;3.45;0.75;;;17.00;99.90;;;-144.05;51.15;125687.94;4810161;29;20053;-81
2022/09/16 09:26:12;;;;;;;3.70;0.73;;;16.50;99.90;;;-144.05;52.96;125687.94;4814474;29;20039;-84
2022/09/16 09:29:09;;;;;;;8.65;1.75;;;16.30;99.90;;;-144.05;52.62;125687.94;4801877;29;20095;-81
2022/09/16 09:31:42;;;;;;;;;;;16.90;99.90;;;-144.05;50.80;125687.94;4814841;29;20039;-81
2022/09/16 09:35:30;;;;;;;5.93;1.20;;;17.60;99.90;;;-144.05;48.15;125687.94;4811464;29;20357;-81
2022/09/16 09:38:26;;;;;;;5.53;0.95;;;18.10;99.90;;;-144.05;48.35;125687.94;4798606;29;20050;-85
2022/09/16 09:41:05;;;;;;;5.88;1.10;;;18.10;99.90;;;-144.05;48.80;125687.94;4817177;29;20022;-80
2022/09/16 09:44:36;;;;;;;6.63;1.38;;;17.70;99.90;;;-144.05;51.39;125687.94;4815342;29;20031;-79
2022/09/16 09:47:22;;;;;;;4.95;1.00;;;17.10;99.90;;;-144.05;52.29;125687.94;4813207;29;20095;-85
2022/09/16 09:50:01;;;;;;;6.00;1.42;;;16.40;99.90;;;-144.05;52.71;125687.94;4811677;29;20035;-80
2022/09/16 09:52:51;;;;;;;6.32;1.30;;;16.30;99.90;;;-144.05;52.47;125687.94;4811464;29;20123;-81
2022/09/16 09:55:26;;;;;;;6.18;1.67;;;16.80;99.90;;;-144.05;49.86;125687.94;4811723;29;20023;-80
2022/09/16 09:58:10;;;;;;;5.05;0.90;;;17.50;99.90;;;-144.05;48.53;125687.94;4810917;29;20094;-82
2022/09/16 10:00:37;;;;;;;7.43;1.13;;;18.10;99.90;;;-144.05;47.75;125687.94;4810317;29;20295;-82
2022/09/16 10:03:17;;;;;;;4.20;0.90;;;18.70;99.90;;;-144.05;46.73;125687.94;4810243;29;20034;-82
2022/09/16 10:05:46;;;;;;;4.47;1.10;;;18.90;99.90;;;-144.05;46.71;125687.94;4824476;29;20030;-83
2022/09/16 10:08:34;;;;;;;4.93;1.30;;;19.10;99.90;;;-144.05;45.58;125687.94;4811910;29;20094;-82
2022/09/16 10:11:14;;;;;;;2.70;0.77;;;19.60;99.90;;;-144.05;44.32;125687.94;4816952;29;20471;-82
2022/09/16 10:13:57;;;;;;;4.78;0.90;;;20.00;99.90;;;-144.05;42.38;125687.94;4810474;29;20058;-82
2022/09/16 10:16:44;;;;;;;3.53;0.55;;;19.70;99.90;;;-144.05;43.52;125687.94;4812971;29;20117;-82
2022/09/16 10:19:23;;;;;;;2.47;0.80;;;19.00;99.90;;;-144.05;44.89;125687.94;4810933;29;20080;-82
2022/09/16 10:22:08;;;;;;;4.03;0.90;;;18.50;99.90;;;-144.05;45.34;125687.94;4812360;29;20082;-83
2022/09/16 10:24:41;;;;;;;6.33;1.33;;;18.10;99.90;;;-144.05;46.87;125687.94;4812743;29;20031;-84
2022/09/16 10:27:31;;;;;;;4.75;0.80;;;17.60;99.90;;;-144.05;47.34;125687.94;4811860;29;20303;-81
2022/09/16 10:30:18;;;;;;;3.47;1.00;;;17.30;99.90;;;-144.05;47.45;125687.94;4811553;29;20057;-82
2022/09/16 10:33:05;;;;;;;2.42;0.68;;;17.30;99.90;;;-144.05;46.58;125687.94;4826143;29;20095;-84
2022/09/16 10:35:36;;;;;;;5.47;0.70;;;17.60;99.90;;;-144.05;43.84;125687.94;4817247;24;20089;-86
2022/09/16 10:38:11;;;;;;;4.00;0.63;;;18.20;99.90;;;-144.05;43.32;125687.94;4808630;29;20080;-85
2022/09/16 10:40:53;;;;;;;4.77;0.90;;;18.30;99.90;;;-144.05;43.91;125687.94;4798171;29;20043;-85
2022/09/16 10:43:22;;;;;;;4.43;0.90;;;18.10;99.90;;;-144.05;44.80;125687.94;4793305;29;20273;-88